This is the latest recevied weather packets stored in our database for station/object W9WRP. If no packets are shown the sender has not sent any weather packets the latest 10 day(s).
| Time | Temp. | Humidity | Pressure | Rain* | Wind** | Luminosity | Snow |
|---|---|---|---|---|---|---|---|
| 1787861546 | 42.78° C | 19% | 1014.5 hPa | 0 mm | - | 703 W/m² | - |
| 1787861241 | 42.78° C | 19% | 1014.8 hPa | 0 mm | - | 708 W/m² | - |
| 1787860940 | 42.78° C | 19% | 1014.8 hPa | 0 mm | - | 714 W/m² | - |
| 1787860635 | 42.22° C | 19% | 1014.8 hPa | 0 mm | - | 715 W/m² | - |
| 1787860330 | 42.22° C | 20% | 1014.9 hPa | 0 mm | - | 727 W/m² | - |
| 1787860025 | 42.78° C | 19% | 1015 hPa | 0 mm | - | 702 W/m² | - |
| 1787859721 | 42.22° C | 20% | 1015.1 hPa | 0 mm | - | 734 W/m² | - |
| 1787859420 | 41.11° C | 21% | 1015 hPa | 0 mm | - | 751 W/m² | - |
| 1787859115 | 41.67° C | 21% | 1015.1 hPa | 0 mm | - | 726 W/m² | - |
| 1787858812 | 41.67° C | 21% | 1015.5 hPa | 0 mm | - | 748 W/m² | - |
| 1787858507 | 41.11° C | 21% | 1015.6 hPa | 0 mm | - | 808 W/m² | - |
| 1787858207 | 40.56° C | 22% | 1015.4 hPa | 0 mm | - | 777 W/m² | - |
| 1787857903 | 41.11° C | 22% | 1015.9 hPa | 0 mm | - | 649 W/m² | - |
| 1787857599 | 40° C | 23% | 1015.8 hPa | 0 mm | - | 732 W/m² | - |
| 1787857299 | 40° C | 23% | 1016 hPa | 0 mm | - | 730 W/m² | - |
| 1787856997 | 41.11° C | 21% | 1016.2 hPa | 0 mm | - | 748 W/m² | - |
| 1787856697 | 40° C | 23% | 1016.1 hPa | 0 mm | - | 776 W/m² | - |
| 1787856392 | 38.89° C | 24% | 1016.5 hPa | 0 mm | - | 303 W/m² | - |
| 1787856087 | 38.89° C | 24% | 1016.3 hPa | 0 mm | - | 321 W/m² | - |
| 1787855782 | 38.89° C | 24% | 1016.5 hPa | 0 mm | - | 422 W/m² | - |
| 1787855477 | 38.89° C | 24% | 1016.6 hPa | 0 mm | - | 385 W/m² | - |
| 1787855173 | 39.44° C | 25% | 1016.4 hPa | 0 mm | - | 149 W/m² | - |
| 1787854867 | 40.56° C | 22% | 1016.3 hPa | 0 mm | - | 373 W/m² | - |
| 1787854566 | 40° C | 24% | 1016.5 hPa | 0 mm | - | 587 W/m² | - |
| 1787854262 | 40.56° C | 23% | 1016.4 hPa | 0 mm | - | 656 W/m² | - |
* Rain latest hour (hover to see other rain measurements)
** Current wind speed in m/s (hover to see current wind gust speed)